Time;durP1;ratioP1;P1;durP2;ratioP2;P2;SDS_P1;SDS_P2;PMS_P1;PMS_P2;Temp;Humidity;BMP_temperature;BMP_pressure;BME280_temperature;BME280_humidity;BME280_pressure;Samples;Min_cycle;Max_cycle;Signal;HPM_P1;HPM_P2
2021/06/07 00:02:19;;;;;;;15.05;13.23;;;;;;;15.65;79.20;101614.31;4974940;28;20076;-87
2021/06/07 00:04:50;;;;;;;12.77;11.50;;;;;;;15.65;79.27;101619.59;5010663;28;20144;-84
2021/06/07 00:07:20;;;;;;;16.60;14.15;;;;;;;15.63;79.24;101609.97;4976099;28;20042;-85
2021/06/07 00:09:48;;;;;;;16.13;13.82;;;;;;;15.63;79.13;101609.97;4977545;28;20526;-85
2021/06/07 00:12:17;;;;;;;15.93;13.38;;;;;;;15.59;79.14;101614.44;5009970;28;20204;-87
2021/06/07 00:14:45;;;;;;;18.88;14.32;;;;;;;15.58;79.04;101609.16;4996765;28;20045;-88
2021/06/07 00:17:13;;;;;;;14.80;13.27;;;;;;;15.57;78.87;101612.72;5047491;28;20911;-88
2021/06/07 00:19:41;;;;;;;21.15;15.23;;;;;;;15.52;79.12;101610.13;4998340;28;20049;-86
2021/06/07 00:22:08;;;;;;;19.52;14.30;;;;;;;15.50;79.32;101617.19;5016510;28;20055;-87
2021/06/07 00:24:35;;;;;;;17.33;15.02;;;;;;;15.46;79.40;101613.72;5013377;28;20629;-87
2021/06/07 00:27:02;;;;;;;17.52;13.70;;;;;;;15.45;79.46;101614.63;4998850;28;20053;-86
2021/06/07 00:29:30;;;;;;;21.25;15.70;;;;;;;15.43;79.58;101613.75;5031000;28;20633;-86
2021/06/07 00:31:56;;;;;;;21.70;14.82;;;;;;;15.42;79.53;101622.56;5009333;28;20523;-87
2021/06/07 00:34:23;;;;;;;18.48;15.35;;;;;;;15.39;79.55;101622.59;5015602;28;20060;-86
2021/06/07 00:36:50;;;;;;;18.83;16.35;;;;;;;15.35;79.55;101620.91;4994257;28;20136;-85
2021/06/07 00:39:17;;;;;;;18.48;16.55;;;;;;;15.33;79.57;101618.28;4999584;28;20053;-87
2021/06/07 00:41:49;;;;;;;20.63;15.95;;;;;;;15.31;79.67;101619.22;5015073;28;20060;-88
2021/06/07 00:44:19;;;;;;;19.85;16.80;;;;;;;15.27;79.91;101618.38;5013826;28;20050;-85
2021/06/07 00:46:48;;;;;;;20.58;16.08;;;;;;;15.26;79.95;101621.03;5011870;28;20495;-85
2021/06/07 00:49:15;;;;;;;18.33;16.38;;;;;;;15.22;79.88;101615.78;5045395;28;20061;-87
2021/06/07 00:51:46;;;;;;;20.58;16.83;;;;;;;15.20;80.16;101624.59;5019133;28;20049;-86
2021/06/07 00:54:17;;;;;;;18.20;16.25;;;;;;;15.18;79.72;101621.13;5026699;28;20057;-87
2021/06/07 00:56:46;;;;;;;18.67;15.70;;;;;;;15.14;79.38;101622.06;5009972;28;20054;-85
2021/06/07 00:59:17;;;;;;;18.73;14.98;;;;;;;15.10;79.21;101629.13;5014244;28;20089;-84
2021/06/07 01:01:48;;;;;;;19.23;14.23;;;;;;;15.05;79.08;101623.91;5020586;28;20088;-87
2021/06/07 01:04:16;;;;;;;15.55;13.85;;;;;;;15.01;79.02;101623.97;4995894;28;20060;-86
2021/06/07 01:06:46;;;;;;;16.67;12.65;;;;;;;14.97;78.91;101620.50;4994761;28;20050;-85
2021/06/07 01:09:16;;;;;;;13.27;11.88;;;;;;;14.96;78.74;101626.66;5026292;28;20073;-86
2021/06/07 01:11:42;;;;;;;14.18;12.57;;;;;;;14.93;78.39;101626.69;5001041;28;20049;-87
2021/06/07 01:14:10;;;;;;;12.85;11.45;;;;;;;14.90;78.49;101626.75;4992920;28;20053;-84
2021/06/07 01:16:40;;;;;;;14.63;12.15;;;;;;;14.89;78.59;101625.84;4997323;28;20055;-86
2021/06/07 01:19:09;;;;;;;12.95;11.40;;;;;;;14.84;78.37;101619.75;5025873;28;20050;-87
2021/06/07 01:21:37;;;;;;;18.25;13.85;;;;;;;14.83;78.35;101619.78;5012631;28;20489;-86
2021/06/07 01:24:10;;;;;;;15.75;11.57;;;;;;;14.78;78.53;101629.50;5013972;28;20056;-88
2021/06/07 01:26:36;;;;;;;16.63;12.73;;;;;;;14.75;78.62;101626.91;4997822;28;20045;-86
2021/06/07 01:29:05;;;;;;;14.07;12.48;;;;;;;14.72;78.59;101618.13;5043976;28;20058;-89
2021/06/07 01:31:38;;;;;;;14.23;12.73;;;;;;;14.71;78.90;101620.78;5007286;28;20048;-87
2021/06/07 01:34:07;;;;;;;14.30;12.25;;;;;;;14.70;78.88;101621.66;4997459;28;20053;-86
2021/06/07 01:36:36;;;;;;;13.95;11.98;;;;;;;14.70;79.05;101621.66;4992594;28;20501;-88
2021/06/07 01:39:04;;;;;;;20.15;16.00;;;;;;;14.68;79.01;101618.19;5013085;28;20049;-87
2021/06/07 01:41:31;;;;;;;18.65;16.05;;;;;;;14.65;79.15;101623.47;5011167;28;20527;-87
2021/06/07 01:43:59;;;;;;;19.60;16.05;;;;;;;14.59;79.19;101624.41;5008576;28;20075;-89
2021/06/07 01:46:25;;;;;;;20.33;16.17;;;;;;;14.54;79.35;101627.06;4997826;28;20116;-88
2021/06/07 01:48:52;;;;;;;18.67;15.70;;;;;;;14.51;79.24;101624.47;5014573;28;20053;-87
2021/06/07 01:51:18;;;;;;;18.65;15.13;;;;;;;14.50;79.38;101620.09;5014343;28;20045;-87
2021/06/07 01:53:49;;;;;;;21.15;15.38;;;;;;;14.48;79.76;101619.22;5013977;28;20049;-88
2021/06/07 01:56:17;;;;;;;15.88;14.27;;;;;;;14.50;79.65;101619.22;4991601;28;20107;-88
2021/06/07 01:58:46;;;;;;;20.58;15.68;;;;;;;14.49;79.84;101628.88;4998008;28;20053;-87
2021/06/07 02:01:19;;;;;;;20.90;15.77;;;;;;;14.47;79.62;101617.50;5010395;28;20037;-88
2021/06/07 02:03:48;;;;;;;;;;;;;;;14.43;79.90;101622.78;5026785;28;20077;-85
2021/06/07 02:06:24;;;;;;;17.17;13.68;;;;;;;14.42;79.76;101624.56;5014111;28;19925;-87
2021/06/07 02:08:55;;;;;;;18.77;16.40;;;;;;;14.44;79.79;101630.66;4997057;28;20050;-89
2021/06/07 02:11:30;;;;;;;18.25;14.75;;;;;;;14.43;79.74;101626.31;5015812;28;20041;-88
2021/06/07 02:14:03;;;;;;;20.85;17.00;;;;;;;14.43;79.86;101630.69;5027757;28;20053;-85
2021/06/07 02:16:36;;;;;;;19.92;16.65;;;;;;;14.41;79.84;101621.94;4982063;28;20052;-86
2021/06/07 02:19:07;;;;;;;;;;;;;;;14.39;80.20;101616.66;5026415;28;20212;-86
2021/06/07 02:21:38;;;;;;;22.35;16.27;;;;;;;14.37;80.12;101619.31;5012652;28;19925;-85
2021/06/07 02:24:10;;;;;;;18.95;15.43;;;;;;;14.36;80.38;101621.97;5015019;28;20068;-87
2021/06/07 02:26:39;;;;;;;21.10;15.68;;;;;;;14.35;80.26;101620.22;4998902;28;20052;-86
2021/06/07 02:29:11;;;;;;;16.88;14.00;;;;;;;14.36;80.36;101622.84;5012519;28;20397;-90
2021/06/07 02:31:38;;;;;;;18.75;16.65;;;;;;;14.37;80.39;101616.69;5008609;28;20052;-85
2021/06/07 02:34:10;;;;;;;20.85;15.60;;;;;;;14.39;80.35;101620.19;5029872;28;20456;-86
2021/06/07 02:36:40;;;;;;;17.95;14.38;;;;;;;14.38;80.27;101617.59;5007035;28;20053;-85
2021/06/07 02:39:13;;;;;;;20.33;15.18;;;;;;;14.37;80.57;101619.31;5027916;28;20107;-85
2021/06/07 02:41:43;;;;;;;18.10;16.25;;;;;;;14.34;80.62;101621.09;5013035;28;20048;-86
2021/06/07 02:44:10;;;;;;;24.23;17.35;;;;;;;14.30;80.88;101622.91;4995760;28;20080;-84
2021/06/07 02:46:37;;;;;;;25.02;18.13;;;;;;;14.24;80.86;101622.97;5035398;28;20045;-87
2021/06/07 02:49:04;;;;;;;22.65;17.90;;;;;;;14.12;81.24;101615.16;5009937;28;20056;-86
2021/06/07 02:51:30;;;;;;;26.52;18.52;;;;;;;13.98;81.34;101621.41;4994140;28;20054;-85
2021/06/07 02:53:57;;;;;;;19.10;16.63;;;;;;;13.83;81.78;101621.50;5029401;28;20187;-88
2021/06/07 02:56:30;;;;;;;22.55;19.42;;;;;;;13.66;82.50;101622.53;5007968;28;20337;-86
2021/06/07 02:59:00;;;;;;;24.33;20.55;;;;;;;13.50;82.86;101618.22;4999531;28;20046;-86
2021/06/07 03:01:28;;;;;;;23.23;19.45;;;;;;;13.35;83.54;101630.53;4993759;28;20052;-86
2021/06/07 03:03:54;;;;;;;29.38;20.23;;;;;;;13.22;83.68;101627.09;5043209;28;20420;-86
2021/06/07 03:06:21;;;;;;;22.15;19.02;;;;;;;13.12;84.21;101632.41;4996391;28;20519;-87
2021/06/07 03:08:47;;;;;;;21.02;18.27;;;;;;;13.02;84.74;101635.06;4992245;28;20129;-84
2021/06/07 03:11:15;;;;;;;22.80;19.95;;;;;;;12.94;85.08;101625.44;5012473;28;21661;-86
2021/06/07 03:13:45;;;;;;;25.00;20.40;;;;;;;12.88;85.22;101628.94;5014799;28;20060;-86
2021/06/07 03:16:14;;;;;;;25.98;20.52;;;;;;;12.81;85.51;101624.59;5013782;28;20049;-86
2021/06/07 03:18:44;;;;;;;25.13;20.63;;;;;;;12.77;85.82;101622.88;5014712;28;20045;-87
2021/06/07 03:21:11;;;;;;;27.60;20.55;;;;;;;12.73;86.33;101622.84;5039175;28;20469;-86
2021/06/07 03:23:41;;;;;;;26.77;20.30;;;;;;;12.72;86.63;101626.38;5000298;28;20052;-88
2021/06/07 03:26:09;;;;;;;29.70;23.08;;;;;;;12.69;86.24;101622.88;5039475;28;20132;-87
2021/06/07 03:28:36;;;;;;;26.80;19.13;;;;;;;12.67;86.86;101629.88;5046727;28;20096;-86
2021/06/07 03:31:05;;;;;;;30.83;21.52;;;;;;;12.67;87.07;101629.88;5014393;28;20056;-88
2021/06/07 03:33:31;;;;;;;29.17;22.30;;;;;;;12.64;86.51;101627.28;5001706;28;20977;-85
2021/06/07 03:35:58;;;;;;;27.23;22.55;;;;;;;12.61;87.00;101627.28;4999842;28;20071;-87
2021/06/07 03:38:33;;;;;;;28.20;21.13;;;;;;;12.60;86.92;101634.28;5013733;28;20112;-88
2021/06/07 03:41:00;;;;;;;28.05;22.20;;;;;;;12.60;87.46;101629.03;5001645;28;20049;-85
2021/06/07 03:43:32;;;;;;;31.05;22.50;;;;;;;12.59;87.54;101624.63;5043853;28;20033;-87
2021/06/07 03:45:59;;;;;;;34.85;23.08;;;;;;;12.57;87.52;101627.28;5017044;28;20132;-86
2021/06/07 03:48:29;;;;;;;30.40;23.65;;;;;;;12.56;87.58;101625.53;5016712;28;22233;-86
2021/06/07 03:51:02;;;;;;;24.15;18.77;;;;;;;12.57;87.53;101626.41;5044621;28;20049;-85
2021/06/07 03:53:29;;;;;;;25.98;20.00;;;;;;;12.55;87.54;101629.06;5019632;28;20042;-84
2021/06/07 03:55:58;;;;;;;30.45;20.92;;;;;;;12.54;87.67;101629.03;5013481;28;20160;-87
2021/06/07 03:58:29;;;;;;;26.95;18.85;;;;;;;12.55;87.57;101634.31;5019325;28;20057;-85
2021/06/07 04:00:59;;;;;;;35.05;21.92;;;;;;;12.56;87.94;101636.03;5017734;28;20053;-86
2021/06/07 04:03:25;;;;;;;31.95;21.77;;;;;;;12.60;87.84;101630.78;5050534;28;20056;-86
2021/06/07 04:05:52;;;;;;;28.95;21.00;;;;;;;12.62;87.72;101627.28;5014656;28;20045;-86
2021/06/07 04:08:21;;;;;;;30.65;22.10;;;;;;;12.65;87.47;101615.91;5041438;28;20052;-85
2021/06/07 04:10:47;;;;;;;26.75;20.58;;;;;;;12.68;87.53;101627.25;5050286;28;20162;-86
2021/06/07 04:13:13;;;;;;;31.25;21.35;;;;;;;12.73;87.67;101628.13;5020352;28;20065;-87
2021/06/07 04:15:41;;;;;;;25.65;20.52;;;;;;;12.81;87.39;101633.34;5014816;28;20424;-85
2021/06/07 04:18:09;;;;;;;27.52;20.52;;;;;;;12.89;87.34;101631.59;4996775;28;20131;-85
2021/06/07 04:20:36;;;;;;;23.67;18.58;;;;;;;13.00;87.21;101638.59;5031094;28;20100;-85
2021/06/07 04:23:08;;;;;;;21.98;19.05;;;;;;;13.13;86.51;101631.50;5031231;28;20056;-85
2021/06/07 04:25:38;;;;;;;24.13;16.83;;;;;;;13.24;86.31;101627.97;5002684;28;20067;-86
2021/06/07 04:28:06;;;;;;;24.80;19.90;;;;;;;13.35;85.75;101627.91;5016844;28;20123;-87
2021/06/07 04:30:33;;;;;;;22.00;18.77;;;;;;;13.45;85.85;101633.16;4996489;28;20082;-87
2021/06/07 04:33:01;;;;;;;29.23;19.60;;;;;;;13.56;85.44;101628.72;4999375;28;20053;-86
2021/06/07 04:35:31;;;;;;;20.83;18.30;;;;;;;13.64;85.03;101626.91;5012416;28;20056;-86
2021/06/07 04:37:57;;;;;;;18.85;16.65;;;;;;;13.70;84.90;101624.25;5025202;28;20056;-87
2021/06/07 04:40:31;;;;;;;26.98;20.65;;;;;;;13.80;84.63;101622.41;4996404;28;20136;-86
2021/06/07 04:43:00;;;;;;;22.92;18.00;;;;;;;13.85;84.74;101623.25;4999554;28;20518;-85
2021/06/07 04:45:28;;;;;;;24.73;20.00;;;;;;;13.95;84.56;101626.72;5019972;28;20054;-86
2021/06/07 04:47:57;;;;;;;21.48;17.58;;;;;;;14.01;84.11;101624.00;5044831;28;20141;-87
2021/06/07 04:50:29;;;;;;;27.50;20.10;;;;;;;14.07;84.23;101623.09;4990385;28;20124;-86
2021/06/07 04:52:59;;;;;;;22.60;19.63;;;;;;;14.06;84.02;101624.84;4996739;28;20061;-88
2021/06/07 04:55:48;;;;;;;27.42;20.85;;;;;;;14.09;83.93;101623.94;5012011;28;20053;-87
2021/06/07 04:58:26;;;;;;;27.77;20.45;;;;;;;14.11;83.80;101622.19;4994936;28;20132;-87
2021/06/07 05:00:57;;;;;;;25.63;20.10;;;;;;;14.19;83.61;101627.41;5013710;28;20049;-86
2021/06/07 05:03:29;;;;;;;23.50;20.70;;;;;;;14.26;83.38;101617.69;4995821;28;20452;-87
2021/06/07 05:05:58;;;;;;;30.45;20.92;;;;;;;14.35;83.23;101614.97;5015925;28;20069;-86
2021/06/07 05:08:27;;;;;;;28.33;23.27;;;;;;;14.45;82.84;101618.41;4992134;28;20053;-86
2021/06/07 05:11:00;;;;;;;26.38;21.48;;;;;;;14.55;82.64;101617.41;5023863;28;21068;-87
2021/06/07 05:13:29;;;;;;;32.05;23.17;;;;;;;14.67;82.02;101612.03;5030121;28;20112;-86
2021/06/07 05:15:58;;;;;;;25.40;21.45;;;;;;;14.78;81.70;101613.69;5048631;28;20049;-87
2021/06/07 05:18:26;;;;;;;25.63;22.88;;;;;;;14.82;81.31;101621.56;5041085;28;20053;-88
2021/06/07 05:20:55;;;;;;;31.00;22.70;;;;;;;14.80;81.15;101619.81;5000388;28;20351;-87
2021/06/07 05:23:21;;;;;;;30.83;21.23;;;;;;;14.84;81.36;101624.16;5031592;28;20044;-87
2021/06/07 05:25:50;;;;;;;38.17;24.38;;;;;;;14.88;81.04;101626.75;4995754;28;22364;-87
2021/06/07 05:28:20;;;;;;;28.83;23.85;;;;;;;14.92;81.06;101619.66;5010685;28;20080;-87
2021/06/07 05:30:50;;;;;;;33.42;23.38;;;;;;;14.92;80.45;101634.63;4997421;28;20049;-87
2021/06/07 05:33:24;;;;;;;28.30;22.50;;;;;;;14.86;80.75;101630.28;5011300;28;20105;-87
2021/06/07 05:35:53;;;;;;;29.25;21.23;;;;;;;14.85;80.59;101629.41;5014286;28;20064;-87
2021/06/07 05:38:22;;;;;;;27.58;20.92;;;;;;;14.83;80.80;101632.97;5014952;28;20056;-88
2021/06/07 05:40:58;;;;;;;23.25;18.38;;;;;;;14.83;80.63;101635.59;5001064;28;20083;-90
2021/06/07 05:43:29;;;;;;;22.38;17.60;;;;;;;14.88;80.48;101631.16;5026840;28;20057;-87
2021/06/07 05:45:57;;;;;;;24.80;20.15;;;;;;;14.98;80.47;101640.69;4999813;28;20794;-87
2021/06/07 05:48:24;;;;;;;20.13;18.02;;;;;;;15.07;79.83;101638.84;5050818;28;20048;-88
2021/06/07 05:50:51;;;;;;;24.10;18.83;;;;;;;15.20;79.88;101635.16;5012865;28;20053;-87
2021/06/07 05:53:20;;;;;;;26.10;19.98;;;;;;;15.32;78.92;101636.78;5014404;28;20053;-88
2021/06/07 05:55:49;;;;;;;23.50;18.33;;;;;;;15.35;78.50;101636.75;5012112;28;20076;-88
2021/06/07 05:58:21;;;;;;;21.02;18.17;;;;;;;15.38;78.47;101649.88;4996128;28;20053;-88
2021/06/07 06:00:50;;;;;;;23.02;15.88;;;;;;;15.47;78.15;101643.63;4995572;28;20049;-89
2021/06/07 06:03:19;;;;;;;20.83;16.73;;;;;;;15.48;77.87;101638.31;5042054;28;20037;-89
2021/06/07 06:05:50;;;;;;;18.10;15.35;;;;;;;15.52;76.57;101636.50;5013137;28;20067;-87
2021/06/07 06:08:18;;;;;;;20.35;16.30;;;;;;;15.55;76.74;101634.72;5009788;28;20496;-87
2021/06/07 06:10:48;;;;;;;18.40;15.43;;;;;;;15.55;76.59;101633.81;4997991;28;20509;-88
2021/06/07 06:13:19;;;;;;;17.70;15.23;;;;;;;15.57;76.71;101637.31;5031135;28;20041;-87
2021/06/07 06:15:49;;;;;;;22.45;18.38;;;;;;;15.58;76.41;101638.19;5010624;28;20137;-88
2021/06/07 06:18:20;;;;;;;22.48;17.33;;;;;;;15.53;76.35;101639.13;5030739;28;20056;-87
2021/06/07 06:20:49;;;;;;;23.67;17.23;;;;;;;15.48;76.43;101642.72;5006681;28;20064;-87
2021/06/07 06:23:17;;;;;;;23.35;18.08;;;;;;;15.42;76.43;101645.44;5016743;28;20064;-86
2021/06/07 06:25:44;;;;;;;21.92;17.45;;;;;;;15.37;76.42;101640.25;4998457;28;20054;-88
2021/06/07 06:28:12;;;;;;;22.35;17.17;;;;;;;15.31;76.96;101646.44;5026366;28;20045;-87
2021/06/07 06:30:40;;;;;;;20.02;17.58;;;;;;;15.35;76.93;101642.88;5032562;28;20054;-88
2021/06/07 06:33:09;;;;;;;22.38;19.15;;;;;;;15.40;76.79;101642.81;5027628;28;20111;-87
2021/06/07 06:35:40;;;;;;;21.92;18.02;;;;;;;15.44;76.78;101647.16;5016227;28;20052;-87
2021/06/07 06:38:11;;;;;;;23.73;19.08;;;;;;;15.49;76.64;101644.47;4999430;28;20049;-86
2021/06/07 06:40:48;;;;;;;25.85;21.45;;;;;;;15.39;76.62;101644.56;5014738;28;20049;-87
2021/06/07 06:43:14;;;;;;;28.63;21.50;;;;;;;15.27;77.07;101650.03;5042544;28;20068;-86
2021/06/07 06:45:42;;;;;;;25.20;20.27;;;;;;;15.23;77.78;101658.88;5009503;28;20045;-87
2021/06/07 06:48:11;;;;;;;25.23;20.42;;;;;;;15.24;77.76;101659.72;4999208;28;20049;-87
2021/06/07 06:50:43;;;;;;;24.95;21.05;;;;;;;15.24;77.75;101655.34;5044755;28;20050;-86
2021/06/07 06:53:17;;;;;;;25.35;20.35;;;;;;;15.26;77.93;101661.47;5001943;28;20991;-87
2021/06/07 06:55:48;;;;;;;25.65;20.63;;;;;;;15.27;77.68;101660.56;5031200;28;20554;-87
2021/06/07 06:58:16;;;;;;;27.83;21.48;;;;;;;15.27;77.91;101665.00;5029172;28;20041;-87
2021/06/07 07:00:49;;;;;;;24.33;18.92;;;;;;;15.29;77.83;101664.09;5016087;28;20060;-86
2021/06/07 07:03:21;;;;;;;27.05;19.73;;;;;;;15.33;77.54;101667.53;5029810;28;20508;-86
2021/06/07 07:05:51;;;;;;;23.58;18.25;;;;;;;15.33;77.43;101668.41;5014177;28;20049;-87
2021/06/07 07:08:21;;;;;;;28.95;19.52;;;;;;;15.28;77.43;101672.88;5001196;28;20140;-86
2021/06/07 07:10:49;;;;;;;25.05;20.63;;;;;;;15.30;77.43;101670.22;4983951;28;20709;-86
2021/06/07 07:13:18;;;;;;;25.65;21.10;;;;;;;15.28;77.19;101666.72;5035485;28;20087;-88
2021/06/07 07:15:50;;;;;;;27.48;19.55;;;;;;;15.35;77.05;101671.03;4998130;28;20435;-86
2021/06/07 07:18:18;;;;;;;24.35;19.17;;;;;;;15.49;76.79;101663.81;5032411;28;20045;-87
2021/06/07 07:20:49;;;;;;;25.42;18.08;;;;;;;15.55;76.27;101671.66;5044199;28;20129;-88
2021/06/07 07:23:20;;;;;;;21.80;16.63;;;;;;;15.74;75.95;101665.25;5031375;28;20083;-86
2021/06/07 07:25:49;;;;;;;23.98;18.05;;;;;;;16.00;75.17;101671.03;5016125;28;20049;-87
2021/06/07 07:28:18;;;;;;;22.48;17.95;;;;;;;16.17;74.25;101667.28;5009141;28;20041;-87
2021/06/07 07:30:45;;;;;;;21.60;19.15;;;;;;;16.27;73.14;101665.34;5015522;28;20655;-86
2021/06/07 07:33:13;;;;;;;20.77;16.90;;;;;;;16.30;73.53;101662.66;5028975;28;20948;-89
2021/06/07 07:35:41;;;;;;;20.55;16.80;;;;;;;16.29;73.34;101672.34;5030554;28;20077;-88
2021/06/07 07:38:09;;;;;;;20.30;17.63;;;;;;;16.34;73.51;101674.91;5000343;28;20568;-88
2021/06/07 07:40:41;;;;;;;22.90;17.52;;;;;;;16.38;73.25;101682.75;5045412;28;20068;-87
2021/06/07 07:43:08;;;;;;;21.90;18.73;;;;;;;16.37;73.16;101680.13;5019140;28;20630;-87
2021/06/07 07:45:35;;;;;;;22.45;17.38;;;;;;;16.27;72.96;101681.19;5049135;28;20049;-86
2021/06/07 07:48:05;;;;;;;24.48;19.70;;;;;;;16.13;73.61;101684.94;5015832;28;20065;-89
2021/06/07 07:50:33;;;;;;;24.10;18.63;;;;;;;16.02;73.82;101682.47;5048092;28;20049;-87
2021/06/07 07:53:04;;;;;;;25.25;20.00;;;;;;;15.91;74.24;101681.75;5001203;28;20121;-86
2021/06/07 07:55:33;;;;;;;22.52;18.05;;;;;;;15.88;74.54;101681.81;5000951;28;20060;-86
2021/06/07 07:58:11;;;;;;;24.50;19.25;;;;;;;15.93;74.51;101687.00;5026417;28;20065;-87
2021/06/07 08:00:41;;;;;;;21.08;17.48;;;;;;;16.06;74.45;101685.94;5017688;28;20509;-89
2021/06/07 08:03:12;;;;;;;24.38;19.85;;;;;;;16.25;73.52;101686.50;5036494;28;20068;-87
2021/06/07 08:05:50;;;;;;;23.58;17.60;;;;;;;16.38;73.18;101680.09;5045118;28;20077;-86
2021/06/07 08:08:16;;;;;;;26.02;19.52;;;;;;;16.47;73.04;101688.81;5001268;28;20057;-87
2021/06/07 08:10:47;;;;;;;23.90;18.20;;;;;;;16.54;72.77;101688.66;5026472;28;20034;-87
2021/06/07 08:13:14;;;;;;;21.23;18.23;;;;;;;16.65;72.73;101687.63;5017287;28;20041;-87
2021/06/07 08:15:42;;;;;;;18.38;16.45;;;;;;;16.77;71.94;101690.03;5028622;28;20053;-89
2021/06/07 08:18:10;;;;;;;20.25;17.08;;;;;;;16.84;71.85;101682.84;5015522;28;20408;-86
2021/06/07 08:20:41;;;;;;;21.15;17.23;;;;;;;16.83;71.47;101692.56;5031367;28;20157;-88
2021/06/07 08:23:18;;;;;;;22.85;17.13;;;;;;;16.77;71.30;101681.22;5015690;28;20132;-87
2021/06/07 08:25:45;;;;;;;19.33;14.93;;;;;;;16.77;71.83;101687.38;4998447;28;20052;-89
2021/06/07 08:28:15;;;;;;;16.92;14.95;;;;;;;16.79;71.78;101679.41;5028117;28;20051;-89
2021/06/07 08:30:42;;;;;;;19.08;15.20;;;;;;;16.86;71.62;101681.06;5010946;28;20103;-89
2021/06/07 08:33:12;;;;;;;20.88;16.33;;;;;;;16.97;71.63;101680.88;5024553;28;20046;-87
2021/06/07 08:35:39;;;;;;;18.95;16.83;;;;;;;16.95;71.30;101683.56;5040186;28;20148;-85
2021/06/07 08:38:06;;;;;;;21.27;18.45;;;;;;;16.90;71.42;101676.59;5012570;28;20037;-88
2021/06/07 08:40:37;;;;;;;21.23;17.38;;;;;;;16.89;71.65;101680.97;5012840;28;20821;-86
2021/06/07 08:43:04;;;;;;;24.85;19.05;;;;;;;16.82;71.58;101682.88;5041934;28;20056;-87
2021/06/07 08:45:34;;;;;;;18.80;16.33;;;;;;;16.71;72.04;101684.84;5028584;28;20056;-86
2021/06/07 08:48:00;;;;;;;23.17;18.13;;;;;;;16.66;72.00;101690.22;5011193;28;20049;-87
2021/06/07 08:50:30;;;;;;;22.35;18.20;;;;;;;16.62;72.58;101682.34;5041256;28;20461;-89
2021/06/07 08:52:59;;;;;;;22.33;16.95;;;;;;;16.61;72.83;101683.25;5010690;28;20049;-86
2021/06/07 08:55:33;;;;;;;24.90;18.33;;;;;;;16.59;72.94;101672.72;5027096;28;21112;-87
2021/06/07 08:58:04;;;;;;;22.10;16.33;;;;;;;16.66;72.91;101678.75;4992184;28;20052;-87
2021/06/07 09:00:38;;;;;;;19.88;15.98;;;;;;;16.79;72.60;101676.78;5010750;28;20512;-87
2021/06/07 09:03:21;;;;;;;26.33;18.92;;;;;;;16.89;72.51;101680.13;5012209;28;20053;-86
2021/06/07 09:05:56;;;;;;;19.37;17.00;;;;;;;17.03;72.13;101680.75;5025639;28;20045;-87
2021/06/07 09:08:33;;;;;;;21.90;18.95;;;;;;;17.16;71.77;101684.91;4996100;28;20648;-87
2021/06/07 09:11:18;;;;;;;18.27;16.05;;;;;;;17.30;71.56;101678.44;5003079;28;20132;-86
2021/06/07 09:13:48;;;;;;;23.35;18.02;;;;;;;17.48;71.51;101678.09;5027830;28;20716;-87
2021/06/07 09:16:17;;;;;;;24.33;19.42;;;;;;;17.51;71.11;101677.16;4984679;28;20404;-86
2021/06/07 09:18:49;;;;;;;24.48;19.38;;;;;;;17.51;71.21;101680.66;4996586;28;20128;-87
2021/06/07 09:21:22;;;;;;;25.42;20.58;;;;;;;17.48;71.20;101683.38;5022180;28;20581;-86
2021/06/07 09:24:06;;;;;;;26.83;20.15;;;;;;;17.40;71.07;101665.91;5027323;28;20508;-85
2021/06/07 09:26:43;;;;;;;22.60;19.05;;;;;;;17.43;71.57;101672.03;5032040;28;20045;-87
2021/06/07 09:29:32;;;;;;;28.50;19.63;;;;;;;17.55;71.11;101670.88;5010838;28;20049;-86
2021/06/07 09:31:59;;;;;;;25.60;18.25;;;;;;;17.74;70.47;101681.06;5015572;28;20037;-87
2021/06/07 09:34:37;;;;;;;24.42;15.43;;;;;;;17.95;70.21;101669.13;5011963;28;20042;-87
2021/06/07 09:37:07;;;;;;;27.30;18.00;;;;;;;18.13;69.57;101673.13;5024758;28;20053;-87
2021/06/07 09:39:36;;;;;;;22.83;18.08;;;;;;;18.10;69.24;101674.06;5011027;28;20565;-88
2021/06/07 09:42:08;;;;;;;25.05;19.65;;;;;;;18.12;69.31;101664.31;5025493;28;20049;-86
2021/06/07 09:44:46;;;;;;;24.90;18.92;;;;;;;18.15;68.83;101668.66;5030006;28;20055;-87
2021/06/07 09:47:20;;;;;;;24.33;18.70;;;;;;;18.12;69.20;101674.91;5005802;28;20045;-86
2021/06/07 09:49:58;;;;;;;25.10;19.35;;;;;;;18.34;68.49;101669.94;5041587;28;20063;-87
2021/06/07 09:52:43;;;;;;;27.02;19.55;;;;;;;18.78;67.23;101676.78;5011752;28;20045;-86
2021/06/07 09:55:24;;;;;;;27.70;19.25;;;;;;;19.08;65.78;101668.91;5041827;28;20707;-86
2021/06/07 09:58:01;;;;;;;22.95;18.20;;;;;;;19.13;65.81;101677.63;5009134;28;20064;-87
2021/06/07 10:00:49;;;;;;;23.92;18.83;;;;;;;19.23;65.52;101679.09;5011982;28;20064;-87
2021/06/07 10:03:32;;;;;;;27.33;20.23;;;;;;;19.38;65.13;101679.56;4989896;28;20061;-89
2021/06/07 10:06:20;;;;;;;27.90;19.27;;;;;;;19.64;64.66;101681.44;5014258;28;20053;-87
2021/06/07 10:08:59;;;;;;;24.17;19.63;;;;;;;20.04;62.73;101671.34;5046505;28;20053;-86
2021/06/07 10:11:37;;;;;;;21.98;18.58;;;;;;;20.25;62.77;101678.63;5023611;28;20056;-87
2021/06/07 10:14:22;;;;;;;19.90;17.05;;;;;;;20.48;62.02;101671.66;4996346;28;20057;-87
2021/06/07 10:16:57;;;;;;;21.58;17.15;;;;;;;20.62;61.85;101672.06;4955831;28;20148;-87
2021/06/07 10:19:33;;;;;;;23.02;19.45;;;;;;;20.50;61.87;101673.34;4977299;28;20084;-87
2021/06/07 10:22:04;;;;;;;25.52;19.23;;;;;;;20.24;62.22;101673.38;4976032;28;20041;-87
2021/06/07 10:24:31;;;;;;;24.90;19.77;;;;;;;20.05;62.89;101678.41;4995560;28;20048;-86
2021/06/07 10:26:59;;;;;;;25.17;19.92;;;;;;;20.08;63.20;101673.00;4997536;28;20073;-87
2021/06/07 10:29:42;;;;;;;22.48;19.00;;;;;;;20.12;62.44;101672.84;4978337;28;20114;-87
2021/06/07 10:32:13;;;;;;;24.05;19.88;;;;;;;19.99;63.03;101672.38;5000540;28;20054;-86
2021/06/07 10:35:02;;;;;;;21.50;16.85;;;;;;;19.91;63.49;101673.56;4980698;28;20050;-86
2021/06/07 10:37:31;;;;;;;23.13;17.83;;;;;;;19.89;63.42;101676.25;4981750;28;20965;-87
2021/06/07 10:40:21;;;;;;;17.75;15.70;;;;;;;19.81;63.74;101672.94;4978638;28;20057;-87
2021/06/07 10:43:10;;;;;;;19.92;17.33;;;;;;;19.86;63.66;101681.66;5013513;28;20073;-87
2021/06/07 10:45:42;;;;;;;23.13;17.98;;;;;;;19.92;63.57;101677.94;5003445;28;20123;-87
2021/06/07 10:48:12;;;;;;;19.97;17.30;;;;;;;20.09;63.33;101678.28;4982300;28;20584;-87
2021/06/07 10:50:43;;;;;;;19.10;15.75;;;;;;;20.16;62.95;101682.47;5014140;28;20050;-86
2021/06/07 10:53:29;;;;;;;17.58;14.68;;;;;;;20.22;62.85;101673.44;4996269;28;20479;-86
2021/06/07 10:56:09;;;;;;;18.58;15.05;;;;;;;20.38;62.41;101673.78;4967922;28;20493;-86
2021/06/07 10:58:49;;;;;;;19.77;16.27;;;;;;;20.59;62.06;101673.97;4992002;28;20053;-87
2021/06/07 11:01:20;;;;;;;16.35;13.13;;;;;;;20.87;61.53;101673.00;5009587;28;20069;-87
2021/06/07 11:03:56;;;;;;;17.25;14.18;;;;;;;21.04;61.04;101675.06;4997579;28;20505;-85
2021/06/07 11:06:30;;;;;;;19.83;16.00;;;;;;;21.06;60.50;101673.22;4984213;28;20041;-87
2021/06/07 11:09:23;;;;;;;18.45;15.13;;;;;;;21.07;60.27;101667.84;4981608;28;21721;-88
2021/06/07 11:11:59;;;;;;;17.92;14.65;;;;;;;21.12;60.10;101676.53;4978175;28;20050;-86
2021/06/07 11:14:28;;;;;;;22.17;15.88;;;;;;;21.25;59.67;101668.94;5007196;28;20050;-87
2021/06/07 11:16:58;;;;;;;17.83;16.02;;;;;;;21.24;59.74;101675.19;4989346;28;20044;-87
2021/06/07 11:19:24;;;;;;;22.15;17.17;;;;;;;21.10;59.89;101670.38;5016085;28;20576;-87
2021/06/07 11:22:02;;;;;;;16.95;14.25;;;;;;;20.96;60.27;101675.34;4994298;28;20127;-87
2021/06/07 11:24:45;;;;;;;18.27;13.95;;;;;;;20.93;60.64;101680.78;5029974;28;20061;-85
2021/06/07 11:27:35;;;;;;;19.02;15.32;;;;;;;20.88;60.97;101672.94;5001152;28;20057;-86